createdAt,value
2022-08-07T00:02:40.681Z,101282.00
2022-08-07T00:07:44.897Z,101298.00
2022-08-07T00:13:00.023Z,101295.20
2022-08-07T00:18:05.353Z,101300.80
2022-08-07T00:23:09.171Z,101303.60
2022-08-07T00:28:12.582Z,101303.80
2022-08-07T00:33:18.970Z,101301.20
2022-08-07T00:38:31.375Z,101302.60
2022-08-07T00:44:00.888Z,101300.40
2022-08-07T00:49:02.307Z,101297.60
2022-08-07T00:54:06.414Z,101297.60
2022-08-07T00:59:10.160Z,101299.20
2022-08-07T01:04:24.655Z,101294.20
2022-08-07T01:10:04.433Z,101289.00
2022-08-07T01:14:56.970Z,101296.60
2022-08-07T01:20:16.697Z,101290.40
2022-08-07T01:25:54.559Z,101285.20
2022-08-07T01:30:46.660Z,101283.80
2022-08-07T01:35:53.844Z,101282.60
2022-08-07T01:41:02.539Z,101284.40
2022-08-07T01:46:08.340Z,101282.20
2022-08-07T01:52:02.363Z,101284.20
2022-08-07T01:56:53.406Z,101282.20
2022-08-07T02:02:10.366Z,101281.40
2022-08-07T02:07:17.316Z,101277.80
2022-08-07T02:12:31.026Z,101275.80
2022-08-07T02:17:37.812Z,101276.60
2022-08-07T02:22:45.321Z,101276.20
2022-08-07T02:27:51.966Z,101279.00
2022-08-07T02:33:01.070Z,101277.20
2022-08-07T02:38:16.044Z,101275.00
2022-08-07T02:43:20.720Z,101267.40
2022-08-07T02:48:26.046Z,101269.80
2022-08-07T02:53:39.084Z,101282.20
2022-08-07T02:58:47.209Z,101276.00
2022-08-07T03:03:53.351Z,101271.80
2022-08-07T03:09:01.105Z,101274.80
2022-08-07T03:14:06.370Z,101273.40
2022-08-07T03:19:11.129Z,101270.40
2022-08-07T03:24:25.824Z,101271.00
2022-08-07T03:29:46.254Z,101269.40
2022-08-07T03:35:16.874Z,101270.60
2022-08-07T03:40:30.898Z,101264.60
2022-08-07T03:45:43.742Z,101267.80
2022-08-07T03:50:57.755Z,101270.80
2022-08-07T03:56:04.014Z,101274.20
2022-08-07T04:01:11.658Z,101275.80
2022-08-07T04:06:37.326Z,101271.40
2022-08-07T04:12:26.678Z,101279.00
2022-08-07T04:17:05.213Z,101274.60
2022-08-07T04:22:29.659Z,101280.00
2022-08-07T04:27:43.858Z,101290.40
2022-08-07T04:32:58.471Z,101290.60
2022-08-07T04:38:07.898Z,101299.40
2022-08-07T04:43:12.821Z,101302.60
2022-08-07T04:48:44.554Z,101298.20
2022-08-07T04:54:08.600Z,101311.60
2022-08-07T05:00:09.455Z,101311.40
2022-08-07T05:05:53.631Z,101316.80
2022-08-07T05:10:47.813Z,101315.80
2022-08-07T05:15:54.501Z,101316.80
2022-08-07T05:21:04.033Z,101320.40
2022-08-07T05:26:24.224Z,101325.60
2022-08-07T05:31:34.837Z,101327.20
2022-08-07T05:36:52.887Z,101329.60
2022-08-07T05:42:02.533Z,101328.00
2022-08-07T05:47:18.272Z,101326.40
2022-08-07T05:52:32.210Z,101329.40
2022-08-07T05:57:42.298Z,101327.20
2022-08-07T06:02:50.647Z,101327.60
2022-08-07T06:08:09.084Z,101336.20
2022-08-07T06:14:10.873Z,101334.20
2022-08-07T06:18:51.806Z,101335.40
2022-08-07T06:24:38.565Z,101343.00
2022-08-07T06:29:32.025Z,101340.40
2022-08-07T06:34:35.493Z,101340.60
2022-08-07T06:40:16.977Z,101343.60
2022-08-07T06:45:12.104Z,101343.20
2022-08-07T06:50:21.885Z,101346.60
2022-08-07T06:56:00.154Z,101348.00
2022-08-07T07:00:58.315Z,101359.80
2022-08-07T07:06:02.959Z,101369.40
2022-08-07T07:11:14.467Z,101373.80
2022-08-07T07:16:50.619Z,101376.60
2022-08-07T07:22:05.328Z,101383.60
2022-08-07T07:27:25.233Z,101376.20
2022-08-07T07:32:42.702Z,101375.60
2022-08-07T07:38:02.226Z,101383.00
2022-08-07T07:43:15.049Z,101377.40
2022-08-07T07:48:35.750Z,101368.80
2022-08-07T07:53:51.683Z,101374.80
2022-08-07T07:58:58.471Z,101375.60
2022-08-07T08:04:11.572Z,101377.80
2022-08-07T08:09:22.700Z,101375.20
2022-08-07T08:14:26.763Z,101378.60
2022-08-07T08:20:17.470Z,101392.20
2022-08-07T08:25:26.930Z,101385.00
2022-08-07T08:30:51.057Z,101389.60
2022-08-07T08:36:00.602Z,101413.00
2022-08-07T08:41:14.769Z,101411.00
2022-08-07T08:46:44.980Z,101402.40
2022-08-07T08:52:30.400Z,101403.80
2022-08-07T08:57:50.819Z,101393.60
2022-08-07T09:03:14.921Z,101400.80
2022-08-07T09:09:00.920Z,101396.00
2022-08-07T09:14:27.528Z,101395.80
2022-08-07T09:19:57.738Z,101390.80
2022-08-07T09:25:17.359Z,101383.80
2022-08-07T09:30:28.043Z,101380.60
2022-08-07T09:36:02.816Z,101385.20
2022-08-07T09:41:58.468Z,101378.80
2022-08-07T09:48:02.486Z,101380.00
2022-08-07T09:53:12.801Z,101374.60
2022-08-07T09:58:38.747Z,101371.40
2022-08-07T10:04:13.900Z,101372.00
2022-08-07T10:10:00.640Z,101366.40
2022-08-07T10:15:46.542Z,101367.00
2022-08-07T10:21:19.588Z,101362.80
2022-08-07T10:26:51.847Z,101359.80
2022-08-07T10:32:37.056Z,101363.00
2022-08-07T10:38:21.170Z,101363.80
2022-08-07T10:44:14.080Z,101347.80
2022-08-07T10:49:51.015Z,101329.20
2022-08-07T10:55:38.525Z,101326.40
2022-08-07T11:01:12.284Z,101327.20
2022-08-07T11:06:35.019Z,101335.40
2022-08-07T11:11:52.175Z,101321.00
2022-08-07T11:17:23.165Z,101323.20
2022-08-07T11:23:09.239Z,101312.00
2022-08-07T11:28:33.432Z,101314.20
2022-08-07T11:33:59.651Z,101314.40
2022-08-07T11:39:04.101Z,101307.00
2022-08-07T11:44:27.397Z,101303.40
2022-08-07T11:50:31.734Z,101307.20
2022-08-07T11:56:27.344Z,101305.20
2022-08-07T12:02:00.678Z,101322.80
2022-08-07T12:07:27.927Z,101320.20
2022-08-07T12:13:03.345Z,101319.00
2022-08-07T12:18:36.567Z,101300.80
2022-08-07T12:24:07.054Z,101310.80
2022-08-07T12:29:57.079Z,101307.00
2022-08-07T12:35:05.620Z,101300.80
2022-08-07T12:40:44.043Z,101307.60
2022-08-07T12:45:52.273Z,101305.00
2022-08-07T12:51:24.492Z,101303.40
2022-08-07T12:56:54.983Z,101302.40
2022-08-07T13:02:51.283Z,101302.00
2022-08-07T13:08:38.932Z,101296.60
2022-08-07T13:13:54.297Z,101294.40
2022-08-07T13:19:54.685Z,101289.20
2022-08-07T13:25:10.076Z,101280.00
2022-08-07T13:30:41.373Z,101282.00
2022-08-07T13:36:00.705Z,101262.80
2022-08-07T13:41:36.091Z,101278.20
2022-08-07T13:46:49.390Z,101273.40
2022-08-07T13:52:22.370Z,101273.60
2022-08-07T13:57:26.683Z,101277.20
2022-08-07T14:02:49.266Z,101270.40
2022-08-07T14:08:00.501Z,101266.40
2022-08-07T14:13:06.921Z,101271.60
2022-08-07T14:18:33.256Z,101263.60
2022-08-07T14:24:00.390Z,101268.20
2022-08-07T14:30:02.846Z,101266.80
2022-08-07T14:34:45.641Z,101260.60
2022-08-07T14:40:16.418Z,101257.00
2022-08-07T14:45:21.370Z,101257.00
2022-08-07T14:50:29.072Z,101259.00
2022-08-07T15:01:22.136Z,101249.20
2022-08-07T15:06:32.278Z,101246.20
2022-08-07T15:12:01.298Z,101244.60
2022-08-07T15:17:16.739Z,101249.80
2022-08-07T15:22:31.145Z,101243.60
2022-08-07T15:28:32.094Z,101239.60
2022-08-07T15:33:19.492Z,101235.60
2022-08-07T15:38:33.126Z,101233.40
2022-08-07T15:44:03.931Z,101170.60
2022-08-07T15:54:42.337Z,101210.00
2022-08-07T15:59:47.744Z,101212.00
2022-08-07T16:04:59.097Z,101242.20
2022-08-07T16:10:22.051Z,101226.00
2022-08-07T16:15:55.578Z,101150.60
2022-08-07T16:21:56.869Z,101156.40
2022-08-07T16:26:59.528Z,101162.40
2022-08-07T16:32:34.671Z,101243.80
2022-08-07T16:38:17.952Z,101242.80
2022-08-07T16:44:03.834Z,101203.80
2022-08-07T16:50:20.583Z,101174.80
2022-08-07T16:55:47.242Z,101162.40
2022-08-07T17:01:15.849Z,101168.20
2022-08-07T17:07:02.894Z,101239.80
2022-08-07T17:12:35.053Z,101179.80
2022-08-07T17:18:27.244Z,101186.80
2022-08-07T17:23:59.799Z,101242.60
2022-08-07T17:30:12.866Z,101237.60
2022-08-07T17:35:33.199Z,101182.60
2022-08-07T17:40:19.755Z,101187.00
2022-08-07T17:45:43.097Z,101247.60
2022-08-07T17:52:00.005Z,101236.00
2022-08-07T17:57:19.128Z,101231.80
2022-08-07T18:02:39.100Z,101246.40
2022-08-07T18:08:03.529Z,101249.20
2022-08-07T18:14:05.314Z,101248.40
2022-08-07T18:21:07.145Z,101246.60
2022-08-07T18:25:23.854Z,101253.80
2022-08-07T18:30:56.170Z,101248.20
2022-08-07T18:36:33.433Z,101254.40
2022-08-07T18:42:04.015Z,101257.60
2022-08-07T18:47:26.536Z,101258.80
2022-08-07T18:53:39.154Z,101263.00
2022-08-07T18:59:47.982Z,101275.80
2022-08-07T19:05:15.794Z,101273.80
2022-08-07T19:10:31.630Z,101268.60
2022-08-07T19:16:04.931Z,101272.00
2022-08-07T19:21:45.163Z,101275.80
2022-08-07T19:27:16.683Z,101281.00
2022-08-07T19:32:30.659Z,101281.00
2022-08-07T19:37:56.331Z,101287.00
2022-08-07T19:43:10.780Z,101282.60
2022-08-07T19:48:19.106Z,101284.60
2022-08-07T19:54:35.555Z,101289.00
2022-08-07T19:58:54.322Z,101289.20
2022-08-07T20:03:58.651Z,101291.00
2022-08-07T20:09:03.552Z,101294.20
2022-08-07T20:14:20.530Z,101297.60
2022-08-07T20:19:48.025Z,101297.60
2022-08-07T20:25:00.558Z,101300.60
2022-08-07T20:30:11.155Z,101304.80
2022-08-07T20:35:26.140Z,101310.80
2022-08-07T20:40:38.108Z,101314.20
2022-08-07T20:46:28.046Z,101311.20
2022-08-07T20:51:15.213Z,101311.20
2022-08-07T20:56:32.435Z,101307.00
2022-08-07T21:01:54.747Z,101315.20
2022-08-07T21:07:04.090Z,101315.00
2022-08-07T21:12:28.604Z,101311.80
2022-08-07T21:18:02.093Z,101308.60
2022-08-07T21:23:15.410Z,101314.60
2022-08-07T21:28:48.479Z,101322.60
2022-08-07T21:34:18.276Z,101321.60
2022-08-07T21:39:46.809Z,101322.20
2022-08-07T21:46:03.207Z,101323.20
2022-08-07T21:50:41.724Z,101326.20
2022-08-07T21:56:16.859Z,101321.80
2022-08-07T22:02:10.281Z,101321.00
2022-08-07T22:07:58.960Z,101322.60
2022-08-07T22:13:00.208Z,101314.40
2022-08-07T22:18:11.073Z,101314.40
2022-08-07T22:24:03.124Z,101304.80
2022-08-07T22:29:37.709Z,101311.80
2022-08-07T22:34:57.377Z,101306.80
2022-08-07T22:40:11.445Z,101299.20
2022-08-07T22:46:04.810Z,101295.80
2022-08-07T22:51:52.307Z,101294.80
2022-08-07T22:57:37.446Z,101288.20
2022-08-07T23:03:01.303Z,101285.00
2022-08-07T23:08:42.052Z,101288.40
2022-08-07T23:14:22.846Z,101286.40
2022-08-07T23:20:14.944Z,101290.20
2022-08-07T23:25:28.708Z,101281.40
2022-08-07T23:31:07.079Z,101280.00
2022-08-07T23:37:19.429Z,101277.20
2022-08-07T23:43:07.744Z,101283.00
2022-08-07T23:48:52.690Z,101277.20
2022-08-07T23:54:08.405Z,101285.80
